createdAt,value
2022-12-16T00:00:07.324Z,-3.30
2022-12-16T00:02:34.201Z,-3.30
2022-12-16T00:05:01.423Z,-3.40
2022-12-16T00:07:28.736Z,-3.50
2022-12-16T00:09:55.474Z,-3.10
2022-12-16T00:12:22.287Z,-3.00
2022-12-16T00:14:49.002Z,-3.20
2022-12-16T00:17:15.765Z,-3.20
2022-12-16T00:19:42.483Z,-3.20
2022-12-16T00:22:09.266Z,-3.10
2022-12-16T00:24:36.085Z,-3.10
2022-12-16T00:27:03.131Z,-2.90
2022-12-16T00:29:30.002Z,-2.90
2022-12-16T00:31:56.842Z,-2.90
2022-12-16T00:34:23.647Z,-2.90
2022-12-16T00:36:50.534Z,-2.90
2022-12-16T00:39:17.552Z,-2.80
2022-12-16T00:41:44.268Z,-2.80
2022-12-16T00:44:11.027Z,-2.80
2022-12-16T00:46:37.774Z,-2.80
2022-12-16T00:49:04.615Z,-2.70
2022-12-16T00:51:31.375Z,-2.70
2022-12-16T00:53:58.153Z,-2.70
2022-12-16T00:56:25.191Z,-2.60
2022-12-16T00:58:51.965Z,-2.50
2022-12-16T01:01:19.144Z,-2.20
2022-12-16T01:03:46.351Z,-2.00
2022-12-16T01:06:17.931Z,-2.00
2022-12-16T01:08:51.225Z,-1.90
2022-12-16T01:11:20.290Z,-2.00
2022-12-16T01:13:50.654Z,-2.00
2022-12-16T01:16:19.079Z,-2.00
2022-12-16T01:18:45.883Z,-2.10
2022-12-16T01:21:14.786Z,-2.00
2022-12-16T01:23:41.572Z,-2.00
2022-12-16T01:26:10.523Z,-2.00
2022-12-16T01:28:37.244Z,-1.80
2022-12-16T01:31:04.640Z,-1.80
2022-12-16T01:33:33.205Z,-1.80
2022-12-16T01:36:06.101Z,-1.80
2022-12-16T01:38:33.313Z,-1.90
2022-12-16T01:41:00.768Z,-1.80
2022-12-16T01:43:30.869Z,-1.80
2022-12-16T01:46:07.742Z,-1.70
2022-12-16T01:48:50.954Z,-1.80
2022-12-16T01:51:39.855Z,-1.80
2022-12-16T01:57:11.520Z,-1.90
2022-12-16T01:59:41.456Z,-1.80
2022-12-16T02:02:09.982Z,-1.70
2022-12-16T02:04:56.884Z,-1.60
2022-12-16T02:07:24.686Z,-1.60
2022-12-16T02:09:51.957Z,-1.70
2022-12-16T02:15:51.015Z,-1.60
2022-12-16T02:18:30.587Z,-1.50
2022-12-16T02:21:19.802Z,-1.30
2022-12-16T02:24:04.965Z,-1.40
2022-12-16T02:26:46.657Z,-1.50
2022-12-16T02:29:38.307Z,-1.30
2022-12-16T02:32:10.862Z,-1.20
2022-12-16T02:34:42.751Z,-1.20
2022-12-16T02:37:12.224Z,-1.20
2022-12-16T02:39:46.723Z,-1.20
2022-12-16T02:42:35.538Z,-1.10
2022-12-16T02:47:52.114Z,-1.20
2022-12-16T02:50:34.686Z,-1.10
2022-12-16T02:53:02.652Z,-1.20
2022-12-16T02:55:41.926Z,-1.10
2022-12-16T02:58:32.500Z,-1.10
2022-12-16T03:03:57.087Z,-1.00
2022-12-16T03:06:26.502Z,-0.80
2022-12-16T03:08:57.726Z,-0.70
2022-12-16T03:11:27.193Z,-0.80
2022-12-16T03:13:56.195Z,-0.80
2022-12-16T03:16:27.565Z,-0.70
2022-12-16T03:22:00.753Z,-0.50
2022-12-16T03:24:28.539Z,-0.50
2022-12-16T03:27:15.028Z,-0.40
2022-12-16T03:30:00.192Z,-0.40
2022-12-16T03:32:53.245Z,-0.40
2022-12-16T03:38:15.274Z,-0.20
2022-12-16T03:40:44.179Z,-0.30
2022-12-16T03:43:14.962Z,-0.40
2022-12-16T03:45:44.262Z,-0.50
2022-12-16T03:48:12.806Z,-0.50
2022-12-16T03:53:26.968Z,-0.40
2022-12-16T03:55:54.843Z,-0.30
2022-12-16T03:58:21.866Z,-0.30
2022-12-16T04:00:48.747Z,-0.10
2022-12-16T04:03:15.712Z,0.00
2022-12-16T04:05:42.602Z,0.20
2022-12-16T04:11:12.695Z,0.40
2022-12-16T04:13:58.382Z,0.20
2022-12-16T04:16:46.627Z,0.10
2022-12-16T04:19:45.211Z,0.10
2022-12-16T04:22:33.477Z,0.20
2022-12-16T04:27:51.174Z,0.60
2022-12-16T04:30:19.842Z,0.80
2022-12-16T04:33:14.995Z,0.60
2022-12-16T04:36:00.481Z,0.60
2022-12-16T04:38:45.925Z,0.70
2022-12-16T04:44:35.329Z,0.60
2022-12-16T04:47:20.888Z,0.90
2022-12-16T04:50:06.447Z,1.00
2022-12-16T04:52:51.836Z,1.10
2022-12-16T04:55:37.529Z,0.90
2022-12-16T05:01:27.490Z,1.10
2022-12-16T05:04:12.887Z,1.10
2022-12-16T05:06:58.356Z,1.10
2022-12-16T05:09:44.851Z,1.00
2022-12-16T05:12:30.391Z,1.00
2022-12-16T05:15:15.795Z,0.90
2022-12-16T05:18:01.410Z,1.00
2022-12-16T05:20:46.848Z,0.90
2022-12-16T05:23:32.617Z,0.90
2022-12-16T05:26:18.208Z,0.90
2022-12-16T05:29:03.610Z,1.00
2022-12-16T05:34:52.102Z,0.90
2022-12-16T05:37:37.645Z,0.80
2022-12-16T05:40:23.442Z,0.80
2022-12-16T05:43:16.725Z,0.80
2022-12-16T05:46:02.637Z,1.00
2022-12-16T05:48:48.841Z,1.10
2022-12-16T05:51:34.184Z,1.00
2022-12-16T05:54:19.779Z,0.90
2022-12-16T05:57:05.058Z,1.00
2022-12-16T05:59:50.103Z,1.10
2022-12-16T06:02:35.293Z,1.00
2022-12-16T06:05:20.843Z,1.10
2022-12-16T06:08:10.831Z,1.20
2022-12-16T06:11:09.935Z,1.20
2022-12-16T06:13:55.174Z,1.40
2022-12-16T06:16:40.324Z,1.40
2022-12-16T06:19:25.676Z,1.40
2022-12-16T06:22:11.247Z,1.30
2022-12-16T06:24:56.566Z,1.40
2022-12-16T06:27:41.772Z,1.30
2022-12-16T06:30:28.090Z,1.40
2022-12-16T06:33:13.432Z,1.10
2022-12-16T06:35:58.593Z,1.20
2022-12-16T06:38:44.000Z,1.30
2022-12-16T06:41:29.310Z,1.30
2022-12-16T06:44:14.684Z,1.00
2022-12-16T06:46:59.830Z,0.90
2022-12-16T06:49:45.827Z,0.90
2022-12-16T06:52:31.324Z,1.00
2022-12-16T06:55:17.381Z,1.10
2022-12-16T06:58:08.169Z,1.20
2022-12-16T07:00:55.904Z,1.20
2022-12-16T07:03:41.600Z,1.40
2022-12-16T07:06:27.452Z,1.50
2022-12-16T07:09:12.917Z,1.70
2022-12-16T07:11:58.371Z,1.50
2022-12-16T07:14:44.831Z,1.60
2022-12-16T07:17:30.391Z,1.30
2022-12-16T07:20:15.840Z,1.50
2022-12-16T07:23:10.707Z,1.50
2022-12-16T07:25:57.839Z,1.40
2022-12-16T07:28:43.416Z,1.40
2022-12-16T07:31:28.972Z,1.40
2022-12-16T07:34:14.158Z,1.30
2022-12-16T07:36:59.630Z,1.20
2022-12-16T07:39:48.724Z,1.00
2022-12-16T07:42:36.605Z,0.90
2022-12-16T07:45:22.426Z,0.90
2022-12-16T07:48:09.823Z,0.90
2022-12-16T07:50:55.893Z,0.90
2022-12-16T07:53:41.665Z,0.90
2022-12-16T07:56:27.631Z,0.80
2022-12-16T07:59:13.912Z,0.80
2022-12-16T08:01:59.971Z,0.70
2022-12-16T08:04:45.727Z,0.80
2022-12-16T08:07:30.869Z,1.10
2022-12-16T08:10:16.850Z,1.10
2022-12-16T08:13:02.257Z,1.20
2022-12-16T08:15:47.865Z,1.20
2022-12-16T08:18:33.264Z,1.00
2022-12-16T08:21:18.835Z,1.00
2022-12-16T08:24:04.267Z,0.90
2022-12-16T08:26:49.863Z,1.00
2022-12-16T08:29:44.314Z,1.00
2022-12-16T08:32:31.331Z,1.10
2022-12-16T08:35:18.037Z,1.20
2022-12-16T08:38:07.624Z,1.20
2022-12-16T08:40:57.692Z,1.30
2022-12-16T08:43:43.102Z,1.30
2022-12-16T08:46:28.539Z,1.30
2022-12-16T08:52:04.349Z,1.20
2022-12-16T08:54:50.855Z,1.20
2022-12-16T08:57:36.826Z,1.20
2022-12-16T09:00:24.675Z,1.00
2022-12-16T09:03:17.926Z,1.00
2022-12-16T09:06:04.365Z,0.90
2022-12-16T09:08:50.200Z,1.00
2022-12-16T09:11:35.684Z,0.90
2022-12-16T09:14:21.076Z,0.80
2022-12-16T09:17:06.983Z,0.80
2022-12-16T09:19:52.494Z,0.90
2022-12-16T09:22:39.415Z,1.00
2022-12-16T09:25:25.282Z,1.20
2022-12-16T09:28:11.904Z,1.10
2022-12-16T09:30:57.277Z,1.20
2022-12-16T09:33:42.538Z,1.30
2022-12-16T09:36:28.091Z,1.30
2022-12-16T09:39:13.822Z,1.00
2022-12-16T09:42:20.160Z,1.20
2022-12-16T09:45:26.568Z,1.10
2022-12-16T09:48:29.304Z,0.80
2022-12-16T09:51:20.855Z,0.80
2022-12-16T09:54:09.908Z,1.00
2022-12-16T09:56:55.771Z,1.00
2022-12-16T09:59:47.920Z,0.80
2022-12-16T10:02:40.655Z,0.80
2022-12-16T10:05:32.199Z,0.90
2022-12-16T10:08:39.015Z,0.90
2022-12-16T10:11:52.731Z,1.00
2022-12-16T10:14:50.146Z,1.00
2022-12-16T10:17:43.039Z,1.00
2022-12-16T10:20:58.119Z,1.10
2022-12-16T10:24:01.694Z,1.20
2022-12-16T10:27:11.520Z,1.10
2022-12-16T10:30:00.750Z,1.00
2022-12-16T10:33:07.759Z,1.20
2022-12-16T10:36:01.136Z,1.40
2022-12-16T10:38:55.743Z,1.50
2022-12-16T10:41:44.848Z,1.60
2022-12-16T10:45:09.743Z,1.40
2022-12-16T10:47:55.189Z,0.90
2022-12-16T10:50:41.642Z,1.00
2022-12-16T10:53:45.754Z,1.20
2022-12-16T10:56:43.587Z,1.20
2022-12-16T10:59:29.639Z,1.40
2022-12-16T11:02:36.285Z,1.50
2022-12-16T11:05:49.164Z,1.50
2022-12-16T11:08:55.483Z,1.60
2022-12-16T11:11:42.404Z,1.50
2022-12-16T11:14:59.523Z,1.30
2022-12-16T11:17:49.093Z,1.40
2022-12-16T11:20:38.493Z,1.40
2022-12-16T11:23:38.364Z,1.30
2022-12-16T11:26:36.637Z,1.20
2022-12-16T11:29:30.334Z,1.10
2022-12-16T11:32:40.278Z,1.20
2022-12-16T11:35:36.000Z,1.30
2022-12-16T11:38:23.319Z,1.60
2022-12-16T11:41:09.159Z,1.60
2022-12-16T11:43:57.707Z,1.60
2022-12-16T11:46:47.795Z,1.70
2022-12-16T11:49:39.383Z,1.70
2022-12-16T11:52:36.842Z,1.70
2022-12-16T11:56:05.542Z,1.60
2022-12-16T11:59:06.638Z,1.80
2022-12-16T12:02:01.248Z,1.80
2022-12-16T12:04:46.898Z,1.90
2022-12-16T12:07:55.782Z,2.00
2022-12-16T12:11:01.182Z,1.90
2022-12-16T12:14:11.247Z,1.60
2022-12-16T12:17:17.730Z,1.80
2022-12-16T12:20:36.840Z,2.00
2022-12-16T12:23:26.237Z,2.00
2022-12-16T12:26:33.997Z,2.00
2022-12-16T12:29:37.092Z,1.90
2022-12-16T12:32:33.855Z,2.00
2022-12-16T12:35:51.686Z,2.20
2022-12-16T12:38:48.537Z,2.40
2022-12-16T12:41:42.755Z,2.50
2022-12-16T12:45:12.722Z,2.50
2022-12-16T12:48:09.738Z,2.40
2022-12-16T12:51:12.149Z,2.40
2022-12-16T12:54:12.339Z,2.30
2022-12-16T12:57:03.826Z,2.30
2022-12-16T13:00:07.717Z,2.50
2022-12-16T13:03:15.162Z,2.60
2022-12-16T13:06:01.748Z,2.60
2022-12-16T13:09:03.334Z,2.60
2022-12-16T13:11:48.737Z,2.70
2022-12-16T13:14:49.225Z,2.60
2022-12-16T13:17:35.297Z,2.20
2022-12-16T13:20:21.761Z,2.30
2022-12-16T13:23:07.319Z,2.20
2022-12-16T13:26:07.140Z,2.30
2022-12-16T13:28:57.165Z,2.30
2022-12-16T13:31:52.172Z,2.50
2022-12-16T13:34:38.757Z,2.50
2022-12-16T13:37:32.424Z,2.40
2022-12-16T13:40:24.827Z,2.50
2022-12-16T13:43:12.724Z,2.70
2022-12-16T13:46:01.789Z,2.60
2022-12-16T13:48:54.067Z,2.60
2022-12-16T13:51:57.455Z,2.40
2022-12-16T13:54:53.868Z,2.20
2022-12-16T13:57:42.737Z,2.20
2022-12-16T14:00:40.304Z,2.20
2022-12-16T14:03:44.299Z,2.30
2022-12-16T14:06:37.736Z,2.30
2022-12-16T14:09:23.808Z,2.40
2022-12-16T14:12:24.203Z,2.70
2022-12-16T14:15:20.333Z,2.60
2022-12-16T14:18:21.733Z,2.30
2022-12-16T14:21:17.342Z,2.10
2022-12-16T14:24:27.722Z,2.10
2022-12-16T14:27:14.263Z,2.30
2022-12-16T14:30:02.200Z,2.50
2022-12-16T14:32:52.059Z,2.70
2022-12-16T14:35:43.746Z,2.40
2022-12-16T14:38:40.810Z,2.20
2022-12-16T14:41:31.004Z,2.20
2022-12-16T14:44:16.513Z,2.10
2022-12-16T14:47:02.090Z,2.20
2022-12-16T14:49:48.578Z,2.20
2022-12-16T14:52:45.689Z,2.20
2022-12-16T14:55:37.287Z,1.90
2022-12-16T14:58:34.098Z,1.50
2022-12-16T15:01:29.070Z,1.10
2022-12-16T15:04:15.593Z,1.10
2022-12-16T15:07:05.181Z,0.90
2022-12-16T15:09:56.369Z,0.70
2022-12-16T15:12:44.241Z,0.80
2022-12-16T15:15:38.181Z,0.70
2022-12-16T15:18:24.281Z,0.60
2022-12-16T15:21:12.582Z,0.50
2022-12-16T15:24:00.500Z,0.30
2022-12-16T15:26:49.281Z,0.20
2022-12-16T15:29:59.819Z,0.10
2022-12-16T15:32:53.726Z,-0.10
2022-12-16T15:35:44.702Z,-0.20
2022-12-16T15:38:34.718Z,-0.40
2022-12-16T15:41:21.959Z,-0.50
2022-12-16T15:44:07.727Z,-0.50
2022-12-16T15:46:54.243Z,-0.60
2022-12-16T15:49:44.327Z,-0.70
2022-12-16T15:52:54.546Z,-0.70
2022-12-16T15:55:52.749Z,-0.80
2022-12-16T15:58:39.776Z,-0.80
2022-12-16T16:01:27.076Z,-0.90
2022-12-16T16:04:14.825Z,-1.10
2022-12-16T16:07:06.166Z,-1.10
2022-12-16T16:09:52.702Z,-1.10
2022-12-16T16:12:41.764Z,-1.10
2022-12-16T16:15:32.826Z,-1.00
2022-12-16T16:18:22.201Z,-1.00
2022-12-16T16:21:08.576Z,-1.00
2022-12-16T16:23:54.754Z,-1.10
2022-12-16T16:26:42.561Z,-1.10
2022-12-16T16:29:29.689Z,-1.20
2022-12-16T16:32:15.187Z,-1.20
2022-12-16T16:35:00.698Z,-1.20
2022-12-16T16:37:46.104Z,-1.20
2022-12-16T16:40:54.901Z,-1.10
2022-12-16T16:43:40.787Z,-1.20
2022-12-16T16:46:38.856Z,-1.30
2022-12-16T16:49:31.680Z,-1.20
2022-12-16T16:52:17.152Z,-1.30
2022-12-16T16:55:02.675Z,-1.30
2022-12-16T16:57:52.888Z,-1.30
2022-12-16T17:00:38.446Z,-1.40
2022-12-16T17:03:23.989Z,-1.50
2022-12-16T17:06:09.588Z,-1.50
2022-12-16T17:08:55.027Z,-1.50
2022-12-16T17:11:45.388Z,-1.60
2022-12-16T17:14:37.741Z,-1.50
2022-12-16T17:17:24.357Z,-1.50
2022-12-16T17:20:10.264Z,-1.50
2022-12-16T17:22:55.732Z,-1.50
2022-12-16T17:25:41.136Z,-1.50
2022-12-16T17:28:27.648Z,-1.60
2022-12-16T17:31:13.389Z,-1.50
2022-12-16T17:33:58.538Z,-1.50
2022-12-16T17:36:44.188Z,-1.60
2022-12-16T17:39:29.527Z,-1.60
2022-12-16T17:42:15.604Z,-1.70
2022-12-16T17:45:01.387Z,-1.70
2022-12-16T17:47:46.601Z,-1.70
2022-12-16T17:50:32.047Z,-1.70
2022-12-16T17:53:17.903Z,-1.80
2022-12-16T17:56:03.709Z,-1.80
2022-12-16T17:58:53.625Z,-1.80
2022-12-16T18:01:39.838Z,-1.80
2022-12-16T18:04:25.996Z,-1.80
2022-12-16T18:07:11.251Z,-1.80
2022-12-16T18:09:56.834Z,-1.80
2022-12-16T18:12:42.279Z,-1.90
2022-12-16T18:15:42.059Z,-1.80
2022-12-16T18:18:27.693Z,-1.90
2022-12-16T18:21:12.960Z,-1.90
2022-12-16T18:23:58.258Z,-2.00
2022-12-16T18:26:43.498Z,-2.00
2022-12-16T18:29:28.958Z,-2.00
2022-12-16T18:32:14.726Z,-1.90
2022-12-16T18:35:00.387Z,-1.90
2022-12-16T18:37:45.856Z,-1.90
2022-12-16T18:40:31.372Z,-1.80
2022-12-16T18:43:17.725Z,-1.90
2022-12-16T18:46:09.502Z,-1.90
2022-12-16T18:48:55.070Z,-2.00
2022-12-16T18:51:40.458Z,-1.90
2022-12-16T18:54:26.028Z,-2.00
2022-12-16T18:57:11.698Z,-1.90
2022-12-16T18:59:57.114Z,-2.10
2022-12-16T19:02:42.720Z,-2.10
2022-12-16T19:05:27.841Z,-2.10
2022-12-16T19:08:14.577Z,-2.10
2022-12-16T19:11:00.853Z,-2.10
2022-12-16T19:13:46.410Z,-2.20
2022-12-16T19:16:31.929Z,-2.20
2022-12-16T19:19:20.230Z,-2.20
2022-12-16T19:22:06.221Z,-2.20
2022-12-16T19:24:51.890Z,-2.10
2022-12-16T19:27:37.332Z,-2.20
2022-12-16T19:30:23.973Z,-2.00
2022-12-16T19:33:09.579Z,-1.80
2022-12-16T19:35:54.780Z,-1.80
2022-12-16T19:38:42.378Z,-2.00
2022-12-16T19:41:34.893Z,-2.10
2022-12-16T19:44:23.829Z,-2.20
2022-12-16T19:50:14.849Z,-2.10
2022-12-16T19:53:00.323Z,-2.30
2022-12-16T19:55:46.085Z,-2.30
2022-12-16T19:58:31.649Z,-2.30
2022-12-16T20:01:17.759Z,-2.40
2022-12-16T20:04:02.985Z,-2.30
2022-12-16T20:06:49.559Z,-2.40
2022-12-16T20:09:34.933Z,-2.50
2022-12-16T20:12:20.331Z,-2.50
2022-12-16T20:15:05.912Z,-2.50
2022-12-16T20:17:51.730Z,-2.40
2022-12-16T20:20:37.427Z,-2.50
2022-12-16T20:23:23.228Z,-2.50
2022-12-16T20:26:20.081Z,-2.40
2022-12-16T20:29:05.781Z,-2.30
2022-12-16T20:31:52.038Z,-2.40
2022-12-16T20:34:37.734Z,-2.50
2022-12-16T20:37:23.267Z,-2.60
2022-12-16T20:40:08.665Z,-2.70
2022-12-16T20:42:55.037Z,-2.60
2022-12-16T20:45:41.524Z,-2.70
2022-12-16T20:48:31.536Z,-2.60
2022-12-16T20:54:28.185Z,-2.70
2022-12-16T20:57:13.819Z,-2.70
2022-12-16T20:59:59.138Z,-2.70
2022-12-16T21:02:44.676Z,-2.70
2022-12-16T21:05:30.387Z,-2.70
2022-12-16T21:08:15.892Z,-2.80
2022-12-16T21:11:01.539Z,-2.70
2022-12-16T21:13:47.217Z,-2.80
2022-12-16T21:16:32.933Z,-2.80
2022-12-16T21:19:18.436Z,-2.80
2022-12-16T21:22:03.934Z,-2.80
2022-12-16T21:24:49.445Z,-2.80
2022-12-16T21:27:34.641Z,-2.90
2022-12-16T21:30:20.144Z,-2.80
2022-12-16T21:33:05.497Z,-2.80
2022-12-16T21:35:50.992Z,-2.60
2022-12-16T21:38:37.096Z,-2.40
2022-12-16T21:41:22.651Z,-2.40
2022-12-16T21:44:10.166Z,-2.50
2022-12-16T21:46:55.553Z,-2.60
2022-12-16T21:49:42.170Z,-2.70
2022-12-16T21:52:27.592Z,-2.70
2022-12-16T21:55:13.101Z,-2.60
2022-12-16T21:58:00.945Z,-2.70
2022-12-16T22:00:46.510Z,-2.80
2022-12-16T22:03:31.991Z,-2.80
2022-12-16T22:06:17.978Z,-2.80
2022-12-16T22:09:03.604Z,-2.80
2022-12-16T22:11:49.072Z,-2.90
2022-12-16T22:14:34.540Z,-2.90
2022-12-16T22:17:19.924Z,-3.00
2022-12-16T22:20:05.382Z,-3.10
2022-12-16T22:22:50.805Z,-3.10
2022-12-16T22:25:37.122Z,-2.90
2022-12-16T22:28:22.536Z,-2.80
2022-12-16T22:31:16.168Z,-2.90
2022-12-16T22:34:02.044Z,-3.00
2022-12-16T22:36:49.012Z,-3.10
2022-12-16T22:39:34.239Z,-3.10
2022-12-16T22:42:19.765Z,-3.20
2022-12-16T22:45:05.324Z,-3.20
2022-12-16T22:47:55.380Z,-3.20
2022-12-16T22:50:41.448Z,-3.20
2022-12-16T22:53:26.628Z,-3.30
2022-12-16T22:56:13.388Z,-3.40
2022-12-16T22:58:59.139Z,-3.40
2022-12-16T23:01:45.194Z,-3.40
2022-12-16T23:04:30.797Z,-3.40
2022-12-16T23:07:15.859Z,-3.50
2022-12-16T23:10:01.360Z,-3.50
2022-12-16T23:12:46.510Z,-3.50
2022-12-16T23:15:32.529Z,-3.50
2022-12-16T23:18:18.811Z,-3.40
2022-12-16T23:21:06.274Z,-3.20
2022-12-16T23:23:51.582Z,-3.10
2022-12-16T23:26:38.355Z,-2.90
2022-12-16T23:29:24.580Z,-3.10
2022-12-16T23:32:10.012Z,-3.20
2022-12-16T23:32:30.830Z,-2.60
2022-12-16T23:34:57.057Z,-3.30
2022-12-16T23:37:42.522Z,-3.20
2022-12-16T23:40:28.584Z,-3.30
2022-12-16T23:43:13.877Z,-3.50
2022-12-16T23:46:01.054Z,-3.60
2022-12-16T23:48:46.467Z,-3.70
2022-12-16T23:51:31.502Z,-3.80
2022-12-16T23:54:17.215Z,-3.80
2022-12-16T23:57:02.598Z,-3.90
2022-12-16T23:59:48.274Z,-3.90
